Time;durP1;ratioP1;P1;durP2;ratioP2;P2;SDS_P1;SDS_P2;PMS_P1;PMS_P2;Temp;Humidity;BMP_temperature;BMP_pressure;BME280_temperature;BME280_humidity;BME280_pressure;Samples;Min_cycle;Max_cycle;Signal;HPM_P1;HPM_P2
2022/11/02 00:00:34;;;;;;;8.07;2.90;;;;;;;;;;5091878;28;20036;-75
2022/11/02 00:03:00;;;;;;;8.63;3.10;;;;;;;;;;5091679;28;20063;-75
2022/11/02 00:05:25;;;;;;;9.20;3.10;;;;;;;;;;5091588;28;20035;-75
2022/11/02 00:07:52;;;;;;;9.45;3.03;;;;;;;;;;5091471;28;20036;-75
2022/11/02 00:10:19;;;;;;;10.50;3.15;;;;;;;;;;5091390;28;20625;-76
2022/11/02 00:12:45;;;;;;;9.40;2.95;;;;;;;;;;5091491;28;20025;-76
2022/11/02 00:15:11;;;;;;;10.55;2.90;;;;;;;;;;5091318;28;20032;-77
2022/11/02 00:17:38;;;;;;;7.80;2.72;;;;;;;;;;5091378;28;20024;-76
2022/11/02 00:20:04;;;;;;;8.95;2.80;;;;;;;;;;5091384;28;20028;-75
2022/11/02 00:22:32;;;;;;;8.85;2.85;;;;;;;;;;5091549;28;20028;-76
2022/11/02 00:25:00;;;;;;;7.00;2.80;;;;;;;;;;5090443;28;20031;-77
2022/11/02 00:27:27;;;;;;;8.30;2.58;;;;;;;;;;5091284;28;20046;-76
2022/11/02 00:29:52;;;;;;;9.07;2.50;;;;;;;;;;5091247;28;20016;-76
2022/11/02 00:32:18;;;;;;;9.57;3.03;;;;;;;;;;5091384;28;20467;-76
2022/11/02 00:34:43;;;;;;;12.73;3.10;;;;;;;;;;5090888;28;20036;-76
2022/11/02 00:37:08;;;;;;;7.72;2.60;;;;;;;;;;5089946;28;20032;-76
2022/11/02 00:39:34;;;;;;;6.45;2.70;;;;;;;;;;5091170;28;20594;-76
2022/11/02 00:41:59;;;;;;;7.95;2.70;;;;;;;;;;5091076;28;20027;-76
2022/11/02 00:44:25;;;;;;;8.98;2.60;;;;;;;;;;5090700;28;20024;-77
2022/11/02 00:46:50;;;;;;;9.32;2.90;;;;;;;;;;5090865;28;20028;-75
2022/11/02 00:49:15;;;;;;;8.57;2.63;;;;;;;;;;5089572;28;20443;-76
2022/11/02 00:51:42;;;;;;;8.80;2.60;;;;;;;;;;5090972;28;20022;-77
2022/11/02 00:54:07;;;;;;;8.40;2.60;;;;;;;;;;5090677;28;20031;-77
2022/11/02 00:56:33;;;;;;;7.80;2.50;;;;;;;;;;5090430;28;20422;-76
2022/11/02 00:58:58;;;;;;;10.05;2.67;;;;;;;;;;5090606;28;20024;-76
2022/11/02 01:01:23;;;;;;;9.90;2.53;;;;;;;;;;5090588;28;20440;-76
2022/11/02 01:03:49;;;;;;;6.80;2.40;;;;;;;;;;5090576;28;20019;-76
2022/11/02 01:06:14;;;;;;;8.23;2.40;;;;;;;;;;5090324;28;20047;-77
2022/11/02 01:08:40;;;;;;;7.78;2.15;;;;;;;;;;5090858;28;20153;-76
2022/11/02 01:11:14;;;;;;;7.32;2.20;;;;;;;;;;5072249;28;20022;-76
2022/11/02 01:13:40;;;;;;;8.48;2.25;;;;;;;;;;5090469;28;20088;-77
2022/11/02 01:16:06;;;;;;;7.05;2.13;;;;;;;;;;5090095;28;20028;-76
2022/11/02 01:18:32;;;;;;;11.10;2.58;;;;;;;;;;5090421;28;20026;-77
2022/11/02 01:20:58;;;;;;;7.20;1.90;;;;;;;;;;5072069;28;20107;-77
2022/11/02 01:23:24;;;;;;;10.95;2.20;;;;;;;;;;5090569;28;20456;-77
2022/11/02 01:25:50;;;;;;;8.27;2.28;;;;;;;;;;5090400;28;20024;-76
2022/11/02 01:28:15;;;;;;;5.88;1.90;;;;;;;;;;5090020;28;20016;-76
2022/11/02 01:30:41;;;;;;;8.90;1.85;;;;;;;;;;5090263;28;20020;-76
2022/11/02 01:33:06;;;;;;;9.88;2.13;;;;;;;;;;5090282;28;20179;-76
2022/11/02 01:35:32;;;;;;;8.48;1.95;;;;;;;;;;5090000;28;20028;-76
2022/11/02 01:37:57;;;;;;;8.13;2.33;;;;;;;;;;5089966;28;20020;-76
2022/11/02 01:40:23;;;;;;;9.00;2.08;;;;;;;;;;5090068;28;20138;-76
2022/11/02 01:42:48;;;;;;;9.20;1.80;;;;;;;;;;5090249;28;20023;-76
2022/11/02 01:45:14;;;;;;;7.18;1.83;;;;;;;;;;5090013;28;20038;-75
2022/11/02 01:47:46;;;;;;;9.77;2.08;;;;;;;;;;5090046;28;20028;-76
2022/11/02 01:50:20;;;;;;;8.40;2.30;;;;;;;;;;5089920;28;20024;-77
2022/11/02 01:52:46;;;;;;;7.43;2.05;;;;;;;;;;5089948;28;20085;-76
2022/11/02 01:55:28;;;;;;;10.55;2.22;;;;;;;;;;5089733;28;20039;-77
2022/11/02 01:58:03;;;;;;;9.75;2.10;;;;;;;;;;5089897;28;20020;-76
2022/11/02 02:00:29;;;;;;;8.43;1.90;;;;;;;;;;5089994;28;20035;-77
2022/11/02 02:03:08;;;;;;;9.43;1.77;;;;;;;;;;5090214;28;20024;-76
2022/11/02 02:05:43;;;;;;;9.50;1.80;;;;;;;;;;5089685;28;20051;-76
2022/11/02 02:08:10;;;;;;;8.07;1.98;;;;;;;;;;5089778;28;20376;-76
2022/11/02 02:10:36;;;;;;;11.98;1.90;;;;;;;;;;5089614;28;20511;-76
2022/11/02 02:13:03;;;;;;;7.80;1.80;;;;;;;;;;5089621;28;20070;-76
2022/11/02 02:15:49;;;;;;;7.90;1.85;;;;;;;;;;5089627;28;20470;-76
2022/11/02 02:18:28;;;;;;;9.80;2.10;;;;;;;;;;5089780;28;20044;-76
2022/11/02 02:21:28;;;;;;;7.93;1.90;;;;;;;;;;5089694;28;20024;-76
2022/11/02 02:24:25;;;;;;;8.02;2.08;;;;;;;;;;5089806;28;20106;-76
2022/11/02 02:27:04;;;;;;;7.75;1.60;;;;;;;;;;5081645;28;20036;-76
2022/11/02 02:29:36;;;;;;;10.07;2.00;;;;;;;;;;5089684;28;20057;-77
2022/11/02 02:32:12;;;;;;;10.70;1.92;;;;;;;;;;5089446;28;20110;-76
2022/11/02 02:34:56;;;;;;;13.65;2.20;;;;;;;;;;5089663;28;20035;-77
2022/11/02 02:37:35;;;;;;;10.68;2.28;;;;;;;;;;5089344;28;20028;-76
2022/11/02 02:40:08;;;;;;;15.82;2.17;;;;;;;;;;5089718;28;20407;-76
2022/11/02 02:42:40;;;;;;;10.80;1.80;;;;;;;;;;5089378;28;20024;-76
2022/11/02 02:45:20;;;;;;;14.93;2.28;;;;;;;;;;5089583;28;20031;-76
2022/11/02 02:48:01;;;;;;;14.50;1.98;;;;;;;;;;5090202;28;20640;-77
2022/11/02 02:50:37;;;;;;;13.25;2.00;;;;;;;;;;5093164;28;20093;-76
2022/11/02 02:53:06;;;;;;;10.52;1.77;;;;;;;;;;5093192;28;20032;-78
2022/11/02 02:55:38;;;;;;;8.73;1.90;;;;;;;;;;5093033;28;20440;-75
2022/11/02 02:58:08;;;;;;;11.48;1.80;;;;;;;;;;5092872;28;20028;-76
2022/11/02 03:00:35;;;;;;;14.00;2.05;;;;;;;;;;5093099;28;20028;-77
2022/11/02 03:03:03;;;;;;;11.05;1.80;;;;;;;;;;5093317;28;20399;-76
2022/11/02 03:05:34;;;;;;;10.00;1.95;;;;;;;;;;5092840;28;20486;-76
2022/11/02 03:08:05;;;;;;;6.05;1.48;;;;;;;;;;5092827;28;20027;-76
2022/11/02 03:10:51;;;;;;;8.23;2.22;;;;;;;;;;5092718;28;20696;-76
2022/11/02 03:13:56;;;;;;;7.95;1.90;;;;;;;;;;5092638;28;20115;-76
2022/11/02 03:17:00;;;;;;;8.23;1.67;;;;;;;;;;5087924;28;20448;-76
2022/11/02 03:19:54;;;;;;;9.23;1.83;;;;;;;;;;4990624;28;20114;-76
2022/11/02 03:22:41;;;;;;;10.65;1.98;;;;;;;;;;4990573;28;20037;-75
2022/11/02 03:25:16;;;;;;;8.20;1.80;;;;;;;;;;5072367;28;20508;-75
2022/11/02 03:27:51;;;;;;;9.90;1.95;;;;;;;;;;5073797;28;20020;-75
2022/11/02 03:30:20;;;;;;;10.00;1.65;;;;;;;;;;5092455;28;20062;-76
2022/11/02 03:33:05;;;;;;;5.78;1.75;;;;;;;;;;5074210;28;20023;-76
2022/11/02 03:35:43;;;;;;;9.98;2.00;;;;;;;;;;5092523;28;20031;-75
2022/11/02 03:38:16;;;;;;;9.70;1.77;;;;;;;;;;5092084;28;20020;-75
2022/11/02 03:40:45;;;;;;;10.30;2.00;;;;;;;;;;5092434;28;20479;-75
2022/11/02 03:43:13;;;;;;;11.18;1.88;;;;;;;;;;5091995;28;20035;-76
2022/11/02 03:45:43;;;;;;;10.65;1.65;;;;;;;;;;5092256;28;20043;-76
2022/11/02 03:48:11;;;;;;;10.52;1.67;;;;;;;;;;5073515;28;20028;-76
2022/11/02 03:50:43;;;;;;;8.52;1.70;;;;;;;;;;5092184;28;20024;-76
2022/11/02 03:53:17;;;;;;;13.95;2.17;;;;;;;;;;5091877;28;20032;-76
2022/11/02 03:55:58;;;;;;;9.13;1.83;;;;;;;;;;5092041;28;20059;-76
2022/11/02 03:58:24;;;;;;;;;;;;;;;;;;5091860;28;20027;-77
2022/11/02 04:00:54;;;;;;;7.78;1.50;;;;;;;;;;5091104;28;19920;-77
2022/11/02 04:03:22;;;;;;;9.10;1.88;;;;;;;;;;5073413;28;20028;-76
2022/11/02 04:05:48;;;;;;;9.90;1.67;;;;;;;;;;5091744;28;20048;-77
2022/11/02 04:08:21;;;;;;;10.13;1.80;;;;;;;;;;5091564;28;20074;-77
2022/11/02 04:16:20;;;;;;;8.10;1.80;;;;;;;;;;5091905;28;20046;-75
2022/11/02 04:21:30;;;;;;;7.68;1.83;;;;;;;;;;5091434;28;20177;-75
2022/11/02 04:26:39;;;;;;;13.95;1.85;;;;;;;;;;5091530;28;20038;-75
2022/11/02 04:29:04;;;;;;;15.27;2.20;;;;;;;;;;5091119;28;20016;-74
2022/11/02 04:31:30;;;;;;;13.88;2.00;;;;;;;;;;5091351;28;20038;-76
2022/11/02 04:33:58;;;;;;;6.80;1.73;;;;;;;;;;5091100;28;20031;-75
2022/11/02 04:36:24;;;;;;;6.75;1.60;;;;;;;;;;5091200;28;20024;-75
2022/11/02 04:38:50;;;;;;;12.13;1.90;;;;;;;;;;5090959;28;20040;-75
2022/11/02 04:44:03;;;;;;;11.63;1.60;;;;;;;;;;5090995;28;20062;-75
2022/11/02 04:46:31;;;;;;;10.90;1.90;;;;;;;;;;5091200;28;20028;-75
2022/11/02 04:48:56;;;;;;;10.07;1.90;;;;;;;;;;5090725;28;20028;-75
2022/11/02 04:51:23;;;;;;;8.02;1.75;;;;;;;;;;5091058;28;20101;-75
2022/11/02 04:53:50;;;;;;;8.10;1.90;;;;;;;;;;5090779;28;20106;-75
2022/11/02 04:56:16;;;;;;;13.02;2.08;;;;;;;;;;5090814;28;20105;-77
2022/11/02 04:58:41;;;;;;;11.68;1.98;;;;;;;;;;5072074;28;20031;-75
2022/11/02 05:01:10;;;;;;;10.60;1.83;;;;;;;;;;5090799;28;20030;-76
2022/11/02 05:03:35;;;;;;;10.75;1.98;;;;;;;;;;5090559;28;20032;-75
2022/11/02 05:06:01;;;;;;;11.10;1.88;;;;;;;;;;5090885;28;20031;-75
2022/11/02 05:08:27;;;;;;;11.05;2.05;;;;;;;;;;5090346;28;20028;-75
2022/11/02 05:10:54;;;;;;;7.30;1.92;;;;;;;;;;5090352;28;20028;-74
2022/11/02 05:13:20;;;;;;;12.32;1.98;;;;;;;;;;5090221;28;20032;-75
2022/11/02 05:15:45;;;;;;;7.70;1.67;;;;;;;;;;5090652;28;20023;-76
2022/11/02 05:18:10;;;;;;;7.60;1.80;;;;;;;;;;5090070;28;20021;-75
2022/11/02 05:20:36;;;;;;;11.05;1.98;;;;;;;;;;5090617;28;20057;-75
2022/11/02 05:23:01;;;;;;;13.52;2.28;;;;;;;;;;5090417;28;20035;-75
2022/11/02 05:25:26;;;;;;;10.15;2.17;;;;;;;;;;5090526;28;20088;-77
2022/11/02 05:27:52;;;;;;;13.48;1.90;;;;;;;;;;5090178;28;20024;-75
2022/11/02 05:30:17;;;;;;;8.73;2.20;;;;;;;;;;5090387;28;20107;-75
2022/11/02 05:32:42;;;;;;;8.88;1.92;;;;;;;;;;5089968;28;20398;-75
2022/11/02 05:35:08;;;;;;;9.15;1.95;;;;;;;;;;5090420;28;20031;-75
2022/11/02 05:37:33;;;;;;;12.80;2.22;;;;;;;;;;5089933;28;20098;-75
2022/11/02 05:39:59;;;;;;;9.50;1.90;;;;;;;;;;5090436;28;20024;-75
2022/11/02 05:42:24;;;;;;;12.18;1.98;;;;;;;;;;5088620;28;20024;-75
2022/11/02 05:44:50;;;;;;;12.23;1.98;;;;;;;;;;5090223;28;20030;-76
2022/11/02 05:47:15;;;;;;;10.32;1.88;;;;;;;;;;5090175;28;20020;-75
2022/11/02 05:49:41;;;;;;;8.82;1.95;;;;;;;;;;5089891;28;20034;-75
2022/11/02 05:52:06;;;;;;;13.20;2.33;;;;;;;;;;5090074;28;20063;-76
2022/11/02 05:54:31;;;;;;;8.85;1.95;;;;;;;;;;5088528;28;20047;-76
2022/11/02 05:56:57;;;;;;;10.38;2.10;;;;;;;;;;5090005;28;20449;-75
2022/11/02 05:59:22;;;;;;;8.07;1.70;;;;;;;;;;5089943;28;20116;-76
2022/11/02 06:01:48;;;;;;;10.30;1.80;;;;;;;;;;5090189;28;20027;-75
2022/11/02 06:04:14;;;;;;;8.55;1.77;;;;;;;;;;5089840;28;20027;-76
2022/11/02 06:06:39;;;;;;;11.02;1.88;;;;;;;;;;5089816;28;20071;-75
2022/11/02 06:09:05;;;;;;;9.93;2.30;;;;;;;;;;5089435;28;20016;-75
2022/11/02 06:11:30;;;;;;;12.18;2.03;;;;;;;;;;5089969;28;20078;-77
2022/11/02 06:13:55;;;;;;;9.52;2.15;;;;;;;;;;5089362;28;20737;-76
2022/11/02 06:16:21;;;;;;;10.80;1.52;;;;;;;;;;5089897;28;20020;-75
2022/11/02 06:18:46;;;;;;;6.88;1.55;;;;;;;;;;5089689;28;20107;-76
2022/11/02 06:21:12;;;;;;;13.63;1.95;;;;;;;;;;5089893;28;20395;-78
2022/11/02 06:23:38;;;;;;;8.63;1.90;;;;;;;;;;5091910;28;20032;-76
2022/11/02 06:26:03;;;;;;;9.48;1.73;;;;;;;;;;5093866;28;20031;-77
2022/11/02 06:28:30;;;;;;;13.77;2.15;;;;;;;;;;5093148;28;20024;-77
2022/11/02 06:30:56;;;;;;;11.80;2.20;;;;;;;;;;5093524;28;20112;-77
2022/11/02 06:33:21;;;;;;;8.38;1.90;;;;;;;;;;5093440;28;20485;-76
2022/11/02 06:35:50;;;;;;;9.27;1.70;;;;;;;;;;5093776;28;20058;-76
2022/11/02 06:38:16;;;;;;;11.25;2.05;;;;;;;;;;5093285;28;20024;-77
2022/11/02 06:40:41;;;;;;;10.02;2.10;;;;;;;;;;5093541;28;20028;-76
2022/11/02 06:43:07;;;;;;;9.88;1.80;;;;;;;;;;5093017;28;20135;-76
2022/11/02 06:45:33;;;;;;;13.18;1.88;;;;;;;;;;5093547;28;20036;-75
2022/11/02 06:47:58;;;;;;;7.97;1.67;;;;;;;;;;5093220;28;20461;-79
2022/11/02 06:50:24;;;;;;;13.18;2.05;;;;;;;;;;5093235;28;20026;-78
2022/11/02 06:52:50;;;;;;;9.27;1.90;;;;;;;;;;5092229;28;20144;-78
2022/11/02 06:55:17;;;;;;;7.93;2.10;;;;;;;;;;5093348;28;20415;-77
2022/11/02 06:57:43;;;;;;;14.60;2.10;;;;;;;;;;5094860;28;20028;-76
2022/11/02 07:00:12;;;;;;;10.93;1.80;;;;;;;;;;5092671;28;20020;-74
2022/11/02 07:02:40;;;;;;;10.95;2.00;;;;;;;;;;5092642;28;20036;-77
2022/11/02 07:05:05;;;;;;;12.23;2.45;;;;;;;;;;5092726;28;20080;-83
2022/11/02 07:07:31;;;;;;;16.17;2.00;;;;;;;;;;5093307;28;20114;-74
2022/11/02 07:09:56;;;;;;;12.05;2.22;;;;;;;;;;5092889;28;20035;-76
2022/11/02 07:12:22;;;;;;;11.90;2.20;;;;;;;;;;5092838;28;20383;-82
2022/11/02 07:14:48;;;;;;;12.40;2.17;;;;;;;;;;5074441;28;20035;-75
2022/11/02 07:17:13;;;;;;;12.10;1.98;;;;;;;;;;5092750;28;20496;-82
2022/11/02 07:19:38;;;;;;;7.93;2.00;;;;;;;;;;5092525;28;20020;-79
2022/11/02 07:22:04;;;;;;;11.82;2.00;;;;;;;;;;5092703;28;20031;-77
2022/11/02 07:24:30;;;;;;;11.27;2.15;;;;;;;;;;5092478;28;20028;-77
2022/11/02 07:26:55;;;;;;;7.88;1.85;;;;;;;;;;5092590;28;20052;-80
2022/11/02 07:29:21;;;;;;;7.97;1.63;;;;;;;;;;5092059;28;20019;-83
2022/11/02 07:31:46;;;;;;;11.77;2.22;;;;;;;;;;5092408;28;20476;-79
2022/11/02 07:34:12;;;;;;;10.27;2.10;;;;;;;;;;5091328;28;20032;-79
2022/11/02 07:36:38;;;;;;;17.67;2.33;;;;;;;;;;5074871;28;20063;-79
2022/11/02 07:39:04;;;;;;;11.15;2.08;;;;;;;;;;5092853;28;20042;-81
2022/11/02 07:41:29;;;;;;;13.68;2.10;;;;;;;;;;5092486;28;20024;-76
2022/11/02 07:43:55;;;;;;;11.10;1.88;;;;;;;;;;5092305;28;20049;-86
2022/11/02 07:46:20;;;;;;;12.23;2.13;;;;;;;;;;5092739;28;20027;-87
2022/11/02 07:48:46;;;;;;;11.07;2.08;;;;;;;;;;5073834;28;20028;-77
2022/11/02 07:51:12;;;;;;;13.27;2.22;;;;;;;;;;5091891;28;20028;-82
2022/11/02 07:53:38;;;;;;;8.93;1.90;;;;;;;;;;5091797;28;20024;-78
2022/11/02 07:56:04;;;;;;;13.73;2.28;;;;;;;;;;5091616;28;20063;-78
2022/11/02 07:58:29;;;;;;;14.27;2.00;;;;;;;;;;5092023;28;20487;-81
2022/11/02 08:00:59;;;;;;;13.93;2.22;;;;;;;;;;5092331;28;20027;-78
2022/11/02 08:03:25;;;;;;;14.75;2.30;;;;;;;;;;5091852;28;20055;-80
2022/11/02 08:05:51;;;;;;;12.55;2.22;;;;;;;;;;5091946;28;20503;-78
2022/11/02 08:08:19;;;;;;;12.98;1.98;;;;;;;;;;5092244;28;20020;-81
2022/11/02 08:10:46;;;;;;;7.28;1.75;;;;;;;;;;5091975;28;20438;-82
2022/11/02 08:13:14;;;;;;;13.88;2.40;;;;;;;;;;5091903;28;20024;-83
2022/11/02 08:15:40;;;;;;;8.95;1.98;;;;;;;;;;5091699;28;20361;-74
2022/11/02 08:18:14;;;;;;;12.95;2.20;;;;;;;;;;5091689;28;20111;-79
2022/11/02 08:20:40;;;;;;;10.07;2.00;;;;;;;;;;5091109;28;20050;-81
2022/11/02 08:23:07;;;;;;;11.10;2.22;;;;;;;;;;5091717;28;20479;-83
2022/11/02 08:25:33;;;;;;;15.30;2.15;;;;;;;;;;5091150;28;20028;-82
2022/11/02 08:28:00;;;;;;;10.85;2.03;;;;;;;;;;5091353;28;20030;-83
2022/11/02 08:30:27;;;;;;;12.52;2.08;;;;;;;;;;5091093;28;20107;-78
2022/11/02 08:32:53;;;;;;;10.43;1.77;;;;;;;;;;5091454;28;20028;-80
2022/11/02 08:35:18;;;;;;;9.75;1.75;;;;;;;;;;5091306;28;20490;-77
2022/11/02 08:37:44;;;;;;;9.00;1.90;;;;;;;;;;5091342;28;20039;-78
2022/11/02 08:40:10;;;;;;;14.88;3.17;;;;;;;;;;5090941;28;20039;-76
2022/11/02 08:42:37;;;;;;;12.02;2.00;;;;;;;;;;5090797;28;20032;-74
2022/11/02 08:45:05;;;;;;;14.40;2.75;;;;;;;;;;5091951;28;20094;-77
2022/11/02 08:47:31;;;;;;;12.63;3.20;;;;;;;;;;5091888;28;20043;-75
2022/11/02 08:49:56;;;;;;;10.88;3.03;;;;;;;;;;5094604;28;20387;-75
2022/11/02 08:52:22;;;;;;;19.95;3.15;;;;;;;;;;5091052;28;20519;-80
2022/11/02 08:54:47;;;;;;;13.88;2.30;;;;;;;;;;5089483;28;20028;-78
2022/11/02 08:57:13;;;;;;;12.65;2.58;;;;;;;;;;5090596;28;20040;-75
2022/11/02 08:59:38;;;;;;;8.95;2.00;;;;;;;;;;5089160;28;20024;-76
2022/11/02 09:02:03;;;;;;;12.10;2.05;;;;;;;;;;5094016;28;20024;-77
2022/11/02 09:04:29;;;;;;;14.77;2.10;;;;;;;;;;5090766;28;20024;-77
2022/11/02 09:06:54;;;;;;;10.48;2.00;;;;;;;;;;5091086;28;20032;-80
2022/11/02 09:09:20;;;;;;;9.98;1.90;;;;;;;;;;5090860;28;20432;-79
2022/11/02 09:11:48;;;;;;;9.68;1.95;;;;;;;;;;5090558;28;20023;-78
2022/11/02 09:14:13;;;;;;;12.52;2.33;;;;;;;;;;5072589;28;20032;-79
2022/11/02 09:16:38;;;;;;;10.90;2.05;;;;;;;;;;5090308;28;20023;-77
2022/11/02 09:19:04;;;;;;;11.15;2.08;;;;;;;;;;5091193;28;20028;-77
2022/11/02 09:21:29;;;;;;;11.02;2.30;;;;;;;;;;5090134;28;20023;-82
2022/11/02 09:23:55;;;;;;;14.30;2.47;;;;;;;;;;5072122;28;20032;-81
2022/11/02 09:26:21;;;;;;;10.05;2.22;;;;;;;;;;5090365;28;20482;-78
2022/11/02 09:28:47;;;;;;;9.10;1.98;;;;;;;;;;5090725;28;20031;-78
2022/11/02 09:31:12;;;;;;;12.68;2.22;;;;;;;;;;5089087;28;20765;-80
2022/11/02 09:33:38;;;;;;;13.07;2.08;;;;;;;;;;5092336;28;20020;-82
2022/11/02 09:36:06;;;;;;;10.02;1.98;;;;;;;;;;5089994;28;20103;-82
2022/11/02 09:38:31;;;;;;;12.60;2.00;;;;;;;;;;5090294;28;20066;-82
2022/11/02 09:40:57;;;;;;;8.68;1.98;;;;;;;;;;5089812;28;20384;-82
2022/11/02 09:43:39;;;;;;;8.45;1.80;;;;;;;;;;5090238;28;20028;-82
2022/11/02 09:46:13;;;;;;;10.55;2.10;;;;;;;;;;5072091;28;20122;-84
2022/11/02 09:48:50;;;;;;;12.02;2.03;;;;;;;;;;5090724;28;20028;-79
2022/11/02 09:51:26;;;;;;;10.75;1.88;;;;;;;;;;5090230;28;20024;-83
2022/11/02 09:54:06;;;;;;;12.20;2.20;;;;;;;;;;5073236;28;20028;-84
2022/11/02 09:56:33;;;;;;;9.10;2.30;;;;;;;;;;5094649;28;20384;-85
2022/11/02 09:59:20;;;;;;;10.20;1.85;;;;;;;;;;5096162;28;20028;-82
2022/11/02 10:02:15;;;;;;;10.90;1.95;;;;;;;;;;5094505;28;20092;-83
2022/11/02 10:05:03;;;;;;;12.65;1.98;;;;;;;;;;5094502;28;20024;-83
2022/11/02 10:07:55;;;;;;;10.93;2.08;;;;;;;;;;5091729;28;20024;-78
2022/11/02 10:10:35;;;;;;;9.23;1.95;;;;;;;;;;5100031;28;20125;-77
2022/11/02 10:13:19;;;;;;;11.52;2.25;;;;;;;;;;5098403;28;20537;-77
2022/11/02 10:15:47;;;;;;;10.52;2.00;;;;;;;;;;5083907;28;20032;-77
2022/11/02 10:18:22;;;;;;;10.05;1.98;;;;;;;;;;5096853;28;20031;-76
2022/11/02 10:20:55;;;;;;;13.45;1.80;;;;;;;;;;5096421;28;20059;-79
2022/11/02 10:23:26;;;;;;;12.25;2.00;;;;;;;;;;5100922;28;20311;-79
2022/11/02 10:25:52;;;;;;;6.90;1.50;;;;;;;;;;5100923;28;20028;-76
2022/11/02 10:28:26;;;;;;;8.18;1.90;;;;;;;;;;5102064;28;20062;-73
2022/11/02 10:30:52;;;;;;;9.77;1.70;;;;;;;;;;5099823;28;20032;-79
2022/11/02 10:33:25;;;;;;;6.28;1.55;;;;;;;;;;5095823;28;20095;-81
2022/11/02 10:36:09;;;;;;;8.00;1.40;;;;;;;;;;5075986;28;20024;-80
2022/11/02 10:39:01;;;;;;;9.45;1.60;;;;;;;;;;5102484;28;20181;-79
2022/11/02 10:41:47;;;;;;;6.65;1.83;;;;;;;;;;5103256;28;20091;-82
2022/11/02 10:44:21;;;;;;;7.10;1.52;;;;;;;;;;5084018;28;20095;-79
2022/11/02 10:47:14;;;;;;;7.68;1.48;;;;;;;;;;5090628;28;20020;-79
2022/11/02 10:50:01;;;;;;;8.00;1.63;;;;;;;;;;5102306;28;20321;-82
2022/11/02 10:52:34;;;;;;;7.88;1.63;;;;;;;;;;5079501;28;20028;-79
2022/11/02 10:55:00;;;;;;;5.47;1.58;;;;;;;;;;5103958;28;20023;-77
2022/11/02 10:57:26;;;;;;;6.50;1.50;;;;;;;;;;5103246;28;20039;-79
2022/11/02 11:00:24;;;;;;;10.57;2.08;;;;;;;;;;5084668;28;20043;-78
2022/11/02 11:03:13;;;;;;;9.63;1.60;;;;;;;;;;5085523;28;20043;-77
2022/11/02 11:05:58;;;;;;;5.22;1.20;;;;;;;;;;5102821;28;20307;-77
2022/11/02 11:08:35;;;;;;;7.40;1.50;;;;;;;;;;5101968;28;20026;-76
2022/11/02 11:11:10;;;;;;;7.53;1.50;;;;;;;;;;5101713;28;20111;-78
2022/11/02 11:13:36;;;;;;;8.35;1.45;;;;;;;;;;5099521;28;20108;-79
2022/11/02 11:16:02;;;;;;;6.55;1.52;;;;;;;;;;5102089;28;20027;-78
2022/11/02 11:18:28;;;;;;;7.63;1.65;;;;;;;;;;5102431;28;20028;-78
2022/11/02 11:20:54;;;;;;;5.95;1.50;;;;;;;;;;5102560;28;20309;-78
2022/11/02 11:23:25;;;;;;;9.05;1.80;;;;;;;;;;5101601;28;20088;-79
2022/11/02 11:26:00;;;;;;;9.48;1.60;;;;;;;;;;5101640;28;20028;-74
2022/11/02 11:28:39;;;;;;;9.18;1.83;;;;;;;;;;5099880;28;20081;-76
2022/11/02 11:31:12;;;;;;;6.15;1.30;;;;;;;;;;5102733;28;20031;-76
2022/11/02 11:33:47;;;;;;;7.40;1.63;;;;;;;;;;5103086;28;20343;-76
2022/11/02 11:36:22;;;;;;;7.93;1.48;;;;;;;;;;5103341;28;20024;-75
2022/11/02 11:38:49;;;;;;;8.00;1.50;;;;;;;;;;5102887;28;20020;-76
2022/11/02 11:41:16;;;;;;;7.90;1.45;;;;;;;;;;5085086;28;20024;-75
2022/11/02 11:43:43;;;;;;;6.55;1.80;;;;;;;;;;5099727;28;20031;-74
2022/11/02 11:46:12;;;;;;;5.70;1.60;;;;;;;;;;5094190;28;20024;-75
2022/11/02 11:48:53;;;;;;;7.97;1.48;;;;;;;;;;5079851;28;20412;-79
2022/11/02 11:51:36;;;;;;;7.72;1.70;;;;;;;;;;5093485;28;20023;-77
2022/11/02 11:54:21;;;;;;;5.65;1.70;;;;;;;;;;5093497;28;20020;-73
2022/11/02 11:56:49;;;;;;;8.05;1.48;;;;;;;;;;5091938;28;20044;-78
2022/11/02 11:59:43;;;;;;;7.90;1.60;;;;;;;;;;5093040;28;20031;-80
2022/11/02 12:02:27;;;;;;;8.00;1.83;;;;;;;;;;5087253;28;20044;-78
2022/11/02 12:05:16;;;;;;;6.80;1.90;;;;;;;;;;5092706;28;20020;-73
2022/11/02 12:08:06;;;;;;;9.48;1.85;;;;;;;;;;5093999;28;20030;-74
2022/11/02 12:11:01;;;;;;;6.25;1.80;;;;;;;;;;5091566;28;20043;-79
2022/11/02 12:13:38;;;;;;;7.72;1.88;;;;;;;;;;5073061;28;20514;-79
2022/11/02 12:16:25;;;;;;;5.80;1.70;;;;;;;;;;5073602;28;20421;-78
2022/11/02 12:18:54;;;;;;;9.00;1.98;;;;;;;;;;5093636;28;20070;-78
2022/11/02 12:21:22;;;;;;;5.55;1.77;;;;;;;;;;5075430;28;20028;-78
2022/11/02 12:23:48;;;;;;;4.57;1.60;;;;;;;;;;5093442;28;20479;-78
2022/11/02 12:26:25;;;;;;;7.05;1.75;;;;;;;;;;5093594;28;20024;-77
2022/11/02 12:29:12;;;;;;;6.20;1.50;;;;;;;;;;5096605;28;20035;-78
2022/11/02 12:31:40;;;;;;;8.45;1.70;;;;;;;;;;5092813;28;20016;-79
2022/11/02 12:34:43;;;;;;;5.38;1.55;;;;;;;;;;5095110;28;20065;-79
2022/11/02 12:37:15;;;;;;;6.88;1.70;;;;;;;;;;5092616;28;20067;-78
2022/11/02 12:40:02;;;;;;;5.88;1.60;;;;;;;;;;5095507;28;20028;-76
2022/11/02 12:42:38;;;;;;;4.78;1.30;;;;;;;;;;5092272;28;20099;-81
2022/11/02 12:45:15;;;;;;;6.43;1.42;;;;;;;;;;5092036;28;20024;-77
2022/11/02 12:47:49;;;;;;;13.18;1.75;;;;;;;;;;5092188;28;20016;-82
2022/11/02 12:50:30;;;;;;;6.65;1.67;;;;;;;;;;5093970;28;20343;-83
2022/11/02 12:53:17;;;;;;;3.28;1.35;;;;;;;;;;5092498;28;20032;-89
2022/11/02 12:55:49;;;;;;;4.85;1.48;;;;;;;;;;5085997;28;20749;-78
2022/11/02 12:58:26;;;;;;;4.43;1.35;;;;;;;;;;5088589;28;20024;-80
2022/11/02 13:01:05;;;;;;;6.05;1.27;;;;;;;;;;5092521;28;20028;-82
2022/11/02 13:03:53;;;;;;;4.40;1.30;;;;;;;;;;5094049;28;20035;-83
2022/11/02 13:06:51;;;;;;;8.40;1.35;;;;;;;;;;5088500;28;20550;-77
2022/11/02 13:09:33;;;;;;;4.15;1.10;;;;;;;;;;5077215;28;20069;-81
2022/11/02 13:12:12;;;;;;;3.67;1.20;;;;;;;;;;5081370;28;20085;-77
2022/11/02 13:14:50;;;;;;;3.47;1.20;;;;;;;;;;5078371;28;20028;-79
2022/11/02 13:17:38;;;;;;;5.60;1.20;;;;;;;;;;5079089;28;20499;-77
2022/11/02 13:20:17;;;;;;;4.88;1.17;;;;;;;;;;5081575;28;20024;-74
2022/11/02 13:22:46;;;;;;;3.40;0.88;;;;;;;;;;5089936;28;20020;-74
2022/11/02 13:25:18;;;;;;;6.95;1.30;;;;;;;;;;5095862;28;20020;-75
2022/11/02 13:27:56;;;;;;;3.47;0.95;;;;;;;;;;5097298;28;20024;-74
2022/11/02 13:30:22;;;;;;;4.55;0.90;;;;;;;;;;5092383;28;20044;-76
2022/11/02 13:32:59;;;;;;;3.10;0.80;;;;;;;;;;5087918;28;20023;-79
2022/11/02 13:35:36;;;;;;;3.13;0.80;;;;;;;;;;5073161;28;20040;-77
2022/11/02 13:38:11;;;;;;;2.78;1.00;;;;;;;;;;5090442;28;20404;-77
2022/11/02 13:40:45;;;;;;;3.50;1.00;;;;;;;;;;5074498;28;20038;-80
2022/11/02 13:43:31;;;;;;;3.40;0.90;;;;;;;;;;5067983;28;20035;-77
2022/11/02 13:46:27;;;;;;;5.72;1.00;;;;;;;;;;5069215;28;20028;-83
2022/11/02 13:49:12;;;;;;;3.45;0.77;;;;;;;;;;5081201;28;20024;-78
2022/11/02 13:51:48;;;;;;;8.70;1.35;;;;;;;;;;5089736;28;20052;-78
2022/11/02 13:54:17;;;;;;;5.43;0.95;;;;;;;;;;5089826;28;20028;-78
2022/11/02 13:56:44;;;;;;;2.95;0.73;;;;;;;;;;5089781;28;20105;-79
2022/11/02 13:59:20;;;;;;;3.38;0.80;;;;;;;;;;5089903;28;20020;-78
2022/11/02 14:01:47;;;;;;;4.53;0.90;;;;;;;;;;5090011;28;20471;-80
2022/11/02 14:04:14;;;;;;;3.08;0.80;;;;;;;;;;5090215;28;20024;-78
2022/11/02 14:07:08;;;;;;;3.42;0.70;;;;;;;;;;5090455;28;20088;-74
2022/11/02 14:09:43;;;;;;;3.42;0.90;;;;;;;;;;5085186;28;20060;-76
2022/11/02 14:12:20;;;;;;;4.32;1.10;;;;;;;;;;5088870;28;20082;-75
2022/11/02 14:15:11;;;;;;;3.75;0.90;;;;;;;;;;5089772;28;20040;-70
2022/11/02 14:18:01;;;;;;;4.10;0.93;;;;;;;;;;5093387;28;20321;-75
2022/11/02 14:20:37;;;;;;;4.00;1.10;;;;;;;;;;5089505;28;20028;-75
2022/11/02 14:23:08;;;;;;;3.20;1.08;;;;;;;;;;5089674;28;20024;-75
2022/11/02 14:25:54;;;;;;;4.22;0.80;;;;;;;;;;5089791;28;20372;-74
2022/11/02 14:28:20;;;;;;;4.68;1.00;;;;;;;;;;5070907;28;20042;-75
2022/11/02 14:30:54;;;;;;;3.92;0.95;;;;;;;;;;5089671;28;20024;-75
2022/11/02 14:33:42;;;;;;;4.72;1.10;;;;;;;;;;5089650;28;20032;-75
2022/11/02 14:36:17;;;;;;;4.32;1.10;;;;;;;;;;5089836;28;20039;-75
2022/11/02 14:39:24;;;;;;;4.85;1.00;;;;;;;;;;5071184;28;20032;-75
2022/11/02 14:42:02;;;;;;;3.15;1.02;;;;;;;;;;5041675;28;20044;-75
2022/11/02 14:44:58;;;;;;;6.45;1.00;;;;;;;;;;5091343;28;20024;-75
2022/11/02 14:47:30;;;;;;;5.82;1.10;;;;;;;;;;5093336;28;20039;-75
2022/11/02 14:50:02;;;;;;;4.50;1.00;;;;;;;;;;5093194;28;20061;-75
2022/11/02 14:52:32;;;;;;;3.38;1.00;;;;;;;;;;5093209;28;20527;-75
2022/11/02 14:55:03;;;;;;;6.32;1.15;;;;;;;;;;5092927;28;20058;-74
2022/11/02 14:57:38;;;;;;;5.22;1.13;;;;;;;;;;5093176;28;20024;-75
2022/11/02 15:00:20;;;;;;;5.45;1.10;;;;;;;;;;5074564;28;20054;-75
2022/11/02 15:02:46;;;;;;;4.38;0.90;;;;;;;;;;5092868;28;20040;-75
2022/11/02 15:05:25;;;;;;;2.97;1.00;;;;;;;;;;5093087;28;20039;-75
2022/11/02 15:08:01;;;;;;;3.45;1.00;;;;;;;;;;5074656;28;20042;-75
2022/11/02 15:10:29;;;;;;;5.72;1.15;;;;;;;;;;5092790;28;20078;-75
2022/11/02 15:13:20;;;;;;;4.68;1.17;;;;;;;;;;5092613;28;20491;-75
2022/11/02 15:15:45;;;;;;;;;;;;;;;;;;5093120;28;20172;-75
2022/11/02 15:18:28;;;;;;;4.53;1.02;;;;;;;;;;5092857;28;19998;-75